หน้าหลัก
METAR-TAF:

METAR-TAF

ท่าอากาศยาน :

Sierra Blanca Regional Airport

Ruidoso, นิวเม็กซิโก, สหรัฐอเมริกา

ละติจูด: 33-28N, ลองจิจูด: 105-32W, ความสูง: 2076 ม.

การสังเกตสภาพอากาศปัจจุบัน

รายงานได้ทำขึ้นเมื่อ 17 นาทีที่แล้ว ณ เวลา 01:35 UTC
ลม 16 นอตจากตะวันตกเฉียงใต้
อุณหภูมิ 27°C
ความชื้น 11%
ความกดอากาศ 1017 hPa
ทัศนวิสัย: 16.1 กม.
ท้องฟ้าแจ่มใส

METAR: KSRR 190135Z AUTO 23016KT 10SM CLR 27/M06 A3002 RMK AO2

เวลา: 19:52 (01:52 UTC)


TAF: หายไป

สังเกตการณ์สภาพอากาศและพยากรณ์อากาศของสนามบินมากกว่า 4000 แห่ง (รายงาน METAR และ TAF).

สถานีที่ดูได้จะแสดงไว้ด้วยจุดสีเหลืองและสีแดงบนแผนที่.

เลื่อนเมาส์ไปเหนือจุดเพื่อดูชื่อสถานี.

แล้วคลิกเพื่อดูสังเกตการณ์และการพยากรณ์สภาพอากาศ.

ในการเปลี่ยนแผนที่: คลิกที่ปุ่มสีเขียวที่มีกากบาทสีดำเพื่อซูมเข้า; ที่ปุ่มสีเขียวที่มีขีดเพื่อซูมออก; หรือที่ลูกศรสีเขียวเพื่อไปยังแผนที่ที่อยู่ติดกัน.


METAR-TAF: